sensor_id;sensor_type;location;lat;lon;timestamp;pressure;altitude;pressure_sealevel;temperature;humidity
49377;BME280;35253;34.688;33.040;2023-01-04T00:02:17;101614.84;;;15.12;65.91
49377;BME280;35253;34.688;33.040;2023-01-04T00:04:42;101619.84;;;15.04;67.06
49377;BME280;35253;34.688;33.040;2023-01-04T00:07:08;101629.63;;;14.91;67.78
49377;BME280;35253;34.688;33.040;2023-01-04T00:09:33;101618.19;;;15.02;66.95
49377;BME280;35253;34.688;33.040;2023-01-04T00:11:58;101612.53;;;14.92;67.17
49377;BME280;35253;34.688;33.040;2023-01-04T00:14:24;101615.91;;;14.81;67.65
49377;BME280;35253;34.688;33.040;2023-01-04T00:16:49;101621.28;;;14.81;68.14
49377;BME280;35253;34.688;33.040;2023-01-04T00:19:15;101608.59;;;14.83;68.36
49377;BME280;35253;34.688;33.040;2023-01-04T00:21:40;101618.97;;;14.89;67.94
49377;BME280;35253;34.688;33.040;2023-01-04T00:24:06;101616.19;;;14.77;68.05
49377;BME280;35253;34.688;33.040;2023-01-04T00:26:33;101611.84;;;14.74;68.42
49377;BME280;35253;34.688;33.040;2023-01-04T00:29:00;101607.19;;;14.78;69.16
49377;BME280;35253;34.688;33.040;2023-01-04T00:31:25;101611.84;;;14.74;69.02
49377;BME280;35253;34.688;33.040;2023-01-04T00:33:55;101606.31;;;14.92;67.96
49377;BME280;35253;34.688;33.040;2023-01-04T00:36:21;101605.53;;;14.89;68.51
49377;BME280;35253;34.688;33.040;2023-01-04T00:38:46;101604.22;;;14.82;69.06
49377;BME280;35253;34.688;33.040;2023-01-04T00:41:12;101606.59;;;15.01;67.86
49377;BME280;35253;34.688;33.040;2023-01-04T00:43:37;101620.50;;;14.65;69.57
49377;BME280;35253;34.688;33.040;2023-01-04T00:46:03;101609.34;;;14.43;70.84
49377;BME280;35253;34.688;33.040;2023-01-04T00:48:31;101610.13;;;14.59;70.21
49377;BME280;35253;34.688;33.040;2023-01-04T00:50:56;101603.00;;;14.44;70.02
49377;BME280;35253;34.688;33.040;2023-01-04T00:53:22;101604.94;;;14.56;71.10
49377;BME280;35253;34.688;33.040;2023-01-04T00:55:47;101602.44;;;14.53;69.81
49377;BME280;35253;34.688;33.040;2023-01-04T00:58:13;101598.22;;;14.49;67.72
49377;BME280;35253;34.688;33.040;2023-01-04T01:00:38;101593.59;;;14.37;69.15
49377;BME280;35253;34.688;33.040;2023-01-04T01:03:04;101596.88;;;14.26;69.27
49377;BME280;35253;34.688;33.040;2023-01-04T01:05:31;101594.09;;;14.28;70.00
49377;BME280;35253;34.688;33.040;2023-01-04T01:07:57;101601.25;;;14.13;71.08
49377;BME280;35253;34.688;33.040;2023-01-04T01:10:22;101592.91;;;14.18;70.19
49377;BME280;35253;34.688;33.040;2023-01-04T01:12:47;101593.13;;;14.15;70.61
49377;BME280;35253;34.688;33.040;2023-01-04T01:15:13;101600.81;;;14.35;68.90
49377;BME280;35253;34.688;33.040;2023-01-04T01:17:38;101593.25;;;14.27;67.59
49377;BME280;35253;34.688;33.040;2023-01-04T01:20:04;101588.38;;;14.34;67.20
49377;BME280;35253;34.688;33.040;2023-01-04T01:22:30;101591.44;;;14.28;63.81
49377;BME280;35253;34.688;33.040;2023-01-04T01:24:56;101584.03;;;14.47;63.28
49377;BME280;35253;34.688;33.040;2023-01-04T01:27:21;101589.28;;;14.49;63.50
49377;BME280;35253;34.688;33.040;2023-01-04T01:29:47;101588.06;;;14.54;63.00
49377;BME280;35253;34.688;33.040;2023-01-04T01:32:12;101587.13;;;14.55;62.04
49377;BME280;35253;34.688;33.040;2023-01-04T01:34:38;101584.81;;;14.63;61.73
49377;BME280;35253;34.688;33.040;2023-01-04T01:37:03;101576.66;;;14.51;61.91
49377;BME280;35253;34.688;33.040;2023-01-04T01:39:29;101576.97;;;14.60;62.10
49377;BME280;35253;34.688;33.040;2023-01-04T01:41:54;101570.63;;;14.47;61.93
49377;BME280;35253;34.688;33.040;2023-01-04T01:47:04;101576.38;;;14.55;60.84
49377;BME280;35253;34.688;33.040;2023-01-04T01:49:35;101580.03;;;14.68;61.38
49377;BME280;35253;34.688;33.040;2023-01-04T01:52:03;101577.72;;;14.62;61.28
49377;BME280;35253;34.688;33.040;2023-01-04T01:54:31;101573.88;;;14.66;61.84
49377;BME280;35253;34.688;33.040;2023-01-04T01:56:58;101580.59;;;14.59;61.70
49377;BME280;35253;34.688;33.040;2023-01-04T01:59:25;101576.00;;;14.47;61.43
49377;BME280;35253;34.688;33.040;2023-01-04T02:01:51;101572.53;;;14.45;59.84
49377;BME280;35253;34.688;33.040;2023-01-04T02:04:16;101563.25;;;14.35;59.66
49377;BME280;35253;34.688;33.040;2023-01-04T02:06:42;101570.78;;;14.44;60.87
49377;BME280;35253;34.688;33.040;2023-01-04T02:09:10;101563.25;;;14.35;59.97
49377;BME280;35253;34.688;33.040;2023-01-04T02:11:36;101562.19;;;14.39;59.13
49377;BME280;35253;34.688;33.040;2023-01-04T02:14:01;101562.13;;;14.25;59.69
49377;BME280;35253;34.688;33.040;2023-01-04T02:16:49;101556.69;;;14.40;59.44
49377;BME280;35253;34.688;33.040;2023-01-04T02:19:26;101559.66;;;14.36;59.42
49377;BME280;35253;34.688;33.040;2023-01-04T02:24:40;101560.84;;;14.46;59.27
49377;BME280;35253;34.688;33.040;2023-01-04T02:35:20;101548.13;;;14.20;59.51
49377;BME280;35253;34.688;33.040;2023-01-04T02:42:50;101565.94;;;14.35;58.33
49377;BME280;35253;34.688;33.040;2023-01-04T02:45:40;101551.88;;;14.31;58.60
49377;BME280;35253;34.688;33.040;2023-01-04T02:48:07;101552.72;;;14.48;57.80
49377;BME280;35253;34.688;33.040;2023-01-04T02:50:55;101559.88;;;14.61;56.89
49377;BME280;35253;34.688;33.040;2023-01-04T02:53:40;101556.81;;;14.39;57.63
49377;BME280;35253;34.688;33.040;2023-01-04T03:03:54;101553.22;;;13.94;59.60
49377;BME280;35253;34.688;33.040;2023-01-04T03:06:44;101549.56;;;13.95;59.88
49377;BME280;35253;34.688;33.040;2023-01-04T03:09:15;101548.03;;;13.91;59.81
49377;BME280;35253;34.688;33.040;2023-01-04T03:11:44;101543.72;;;13.89;60.19
49377;BME280;35253;34.688;33.040;2023-01-04T03:14:29;101545.94;;;13.96;60.22
49377;BME280;35253;34.688;33.040;2023-01-04T03:16:57;101540.56;;;13.96;60.20
49377;BME280;35253;34.688;33.040;2023-01-04T03:19:24;101540.41;;;13.99;60.30
49377;BME280;35253;34.688;33.040;2023-01-04T03:22:08;101539.00;;;14.08;60.78
49377;BME280;35253;34.688;33.040;2023-01-04T03:24:55;101539.75;;;14.10;60.21
49377;BME280;35253;34.688;33.040;2023-01-04T03:27:39;101536.59;;;14.04;60.78
49377;BME280;35253;34.688;33.040;2023-01-04T03:30:24;101538.59;;;14.14;60.99
49377;BME280;35253;34.688;33.040;2023-01-04T03:33:11;101543.88;;;14.16;61.53
49377;BME280;35253;34.688;33.040;2023-01-04T03:38:42;101543.09;;;14.14;61.76
49377;BME280;35253;34.688;33.040;2023-01-04T03:44:23;101536.19;;;14.10;62.47
49377;BME280;35253;34.688;33.040;2023-01-04T03:50:23;101544.09;;;14.13;63.00
49377;BME280;35253;34.688;33.040;2023-01-04T03:52:50;101543.63;;;14.20;63.03
49377;BME280;35253;34.688;33.040;2023-01-04T03:55:16;101555.75;;;14.12;63.52
49377;BME280;35253;34.688;33.040;2023-01-04T03:57:42;101554.22;;;14.08;63.88
49377;BME280;35253;34.688;33.040;2023-01-04T04:00:10;101555.75;;;14.12;63.73
49377;BME280;35253;34.688;33.040;2023-01-04T04:02:38;101560.19;;;14.27;63.51
49377;BME280;35253;34.688;33.040;2023-01-04T04:05:04;101556.34;;;14.31;63.70
49377;BME280;35253;34.688;33.040;2023-01-04T04:07:48;101556.56;;;14.28;63.74
49377;BME280;35253;34.688;33.040;2023-01-04T04:10:32;101558.00;;;14.33;64.09
49377;BME280;35253;34.688;33.040;2023-01-04T04:12:57;101562.47;;;14.49;64.24
49377;BME280;35253;34.688;33.040;2023-01-04T04:15:23;101561.44;;;14.51;64.10
49377;BME280;35253;34.688;33.040;2023-01-04T04:17:48;101567.19;;;14.59;63.87
49377;BME280;35253;34.688;33.040;2023-01-04T04:20:13;101565.41;;;14.44;64.36
49377;BME280;35253;34.688;33.040;2023-01-04T04:22:39;101573.88;;;14.38;63.80
49377;BME280;35253;34.688;33.040;2023-01-04T04:25:05;101565.63;;;14.11;63.18
49377;BME280;35253;34.688;33.040;2023-01-04T04:27:30;101560.00;;;14.00;63.11
49377;BME280;35253;34.688;33.040;2023-01-04T04:29:55;101562.44;;;14.05;63.09
49377;BME280;35253;34.688;33.040;2023-01-04T04:32:21;101559.59;;;14.08;62.46
49377;BME280;35253;34.688;33.040;2023-01-04T04:34:46;101550.28;;;14.13;62.12
49377;BME280;35253;34.688;33.040;2023-01-04T04:37:12;101556.69;;;14.40;59.11
49377;BME280;35253;34.688;33.040;2023-01-04T04:39:37;101558.97;;;14.32;60.06
49377;BME280;35253;34.688;33.040;2023-01-04T04:42:03;101559.31;;;14.42;59.32
49377;BME280;35253;34.688;33.040;2023-01-04T04:44:28;101559.09;;;14.45;58.00
49377;BME280;35253;34.688;33.040;2023-01-04T04:46:54;101555.84;;;14.40;57.34
49377;BME280;35253;34.688;33.040;2023-01-04T04:49:19;101547.34;;;14.48;57.64
49377;BME280;35253;34.688;33.040;2023-01-04T04:51:45;101555.09;;;14.38;57.26
49377;BME280;35253;34.688;33.040;2023-01-04T04:54:13;101556.69;;;14.40;57.18
49377;BME280;35253;34.688;33.040;2023-01-04T04:56:40;101553.69;;;14.31;56.91
49377;BME280;35253;34.688;33.040;2023-01-04T04:59:05;101556.03;;;14.37;57.04
49377;BME280;35253;34.688;33.040;2023-01-04T05:01:31;101560.16;;;14.42;56.70
49377;BME280;35253;34.688;33.040;2023-01-04T05:03:56;101561.88;;;14.14;57.79
49377;BME280;35253;34.688;33.040;2023-01-04T05:06:22;101563.69;;;13.99;58.25
49377;BME280;35253;34.688;33.040;2023-01-04T05:08:48;101561.59;;;14.18;57.67
49377;BME280;35253;34.688;33.040;2023-01-04T05:11:13;101553.06;;;14.12;57.68
49377;BME280;35253;34.688;33.040;2023-01-04T05:13:39;101560.97;;;14.29;57.40
49377;BME280;35253;34.688;33.040;2023-01-04T05:16:05;101551.00;;;14.31;56.31
49377;BME280;35253;34.688;33.040;2023-01-04T05:18:30;101554.97;;;14.39;56.04
49377;BME280;35253;34.688;33.040;2023-01-04T05:20:56;101561.19;;;14.40;55.99
49377;BME280;35253;34.688;33.040;2023-01-04T05:23:21;101554.28;;;14.36;56.19
49377;BME280;35253;34.688;33.040;2023-01-04T05:25:56;101549.72;;;14.38;55.55
49377;BME280;35253;34.688;33.040;2023-01-04T05:28:23;101555.31;;;14.33;55.97
49377;BME280;35253;34.688;33.040;2023-01-04T05:30:49;101559.66;;;14.36;55.77
49377;BME280;35253;34.688;33.040;2023-01-04T05:33:25;101562.75;;;14.44;55.75
49377;BME280;35253;34.688;33.040;2023-01-04T05:35:51;101554.03;;;14.55;55.93
49377;BME280;35253;34.688;33.040;2023-01-04T05:38:17;101567.19;;;14.59;55.03
49377;BME280;35253;34.688;33.040;2023-01-04T05:40:43;101567.94;;;14.75;54.59
49377;BME280;35253;34.688;33.040;2023-01-04T05:43:08;101557.31;;;14.74;54.38
49377;BME280;35253;34.688;33.040;2023-01-04T05:45:34;101564.59;;;14.72;55.03
49377;BME280;35253;34.688;33.040;2023-01-04T05:47:59;101570.63;;;14.75;54.81
49377;BME280;35253;34.688;33.040;2023-01-04T05:50:25;101567.19;;;14.73;56.32
49377;BME280;35253;34.688;33.040;2023-01-04T05:52:51;101567.56;;;14.81;56.38
49377;BME280;35253;34.688;33.040;2023-01-04T05:55:17;101576.78;;;14.92;55.41
49377;BME280;35253;34.688;33.040;2023-01-04T05:57:43;101577.63;;;14.92;55.06
49377;BME280;35253;34.688;33.040;2023-01-04T06:00:08;101571.22;;;14.95;55.53
49377;BME280;35253;34.688;33.040;2023-01-04T06:02:34;101579.66;;;14.88;56.08
49377;BME280;35253;34.688;33.040;2023-01-04T06:05:00;101569.09;;;14.85;56.71
49377;BME280;35253;34.688;33.040;2023-01-04T06:07:28;101567.75;;;15.07;56.53
49377;BME280;35253;34.688;33.040;2023-01-04T06:09:54;101565.63;;;15.12;55.38
49377;BME280;35253;34.688;33.040;2023-01-04T06:12:20;101559.41;;;14.97;56.47
49377;BME280;35253;34.688;33.040;2023-01-04T06:14:45;101562.16;;;15.10;56.28
49377;BME280;35253;34.688;33.040;2023-01-04T06:17:11;101564.25;;;15.19;55.69
49377;BME280;35253;34.688;33.040;2023-01-04T06:19:36;101562.13;;;15.38;55.44
49377;BME280;35253;34.688;33.040;2023-01-04T06:22:02;101555.22;;;15.34;55.17
49377;BME280;35253;34.688;33.040;2023-01-04T06:24:27;101558.56;;;15.52;55.19
49377;BME280;35253;34.688;33.040;2023-01-04T06:26:53;101560.19;;;15.54;55.05
49377;BME280;35253;34.688;33.040;2023-01-04T06:29:18;101568.06;;;15.57;55.20
49377;BME280;35253;34.688;33.040;2023-01-04T06:31:43;101571.00;;;15.67;55.13
49377;BME280;35253;34.688;33.040;2023-01-04T06:34:12;101569.94;;;15.69;55.18
49377;BME280;35253;34.688;33.040;2023-01-04T06:36:38;101573.75;;;15.80;55.42
49377;BME280;35253;34.688;33.040;2023-01-04T06:39:03;101566.22;;;15.85;54.80
49377;BME280;35253;34.688;33.040;2023-01-04T06:41:29;101571.53;;;15.99;54.18
49377;BME280;35253;34.688;33.040;2023-01-04T06:43:54;101576.00;;;16.12;52.85
49377;BME280;35253;34.688;33.040;2023-01-04T06:46:20;101583.75;;;16.17;52.27
49377;BME280;35253;34.688;33.040;2023-01-04T06:48:45;101580.66;;;16.23;51.98
49377;BME280;35253;34.688;33.040;2023-01-04T06:51:12;101583.13;;;16.39;51.66
49377;BME280;35253;34.688;33.040;2023-01-04T06:53:38;101580.03;;;16.45;50.99
49377;BME280;35253;34.688;33.040;2023-01-04T06:56:03;101580.91;;;16.45;49.54
49377;BME280;35253;34.688;33.040;2023-01-04T06:58:29;101592.63;;;16.57;50.31
49377;BME280;35253;34.688;33.040;2023-01-04T07:00:54;101579.75;;;16.62;50.39
49377;BME280;35253;34.688;33.040;2023-01-04T07:03:20;101595.28;;;16.71;50.13
49377;BME280;35253;34.688;33.040;2023-01-04T07:05:46;101588.56;;;16.77;49.81
49377;BME280;35253;34.688;33.040;2023-01-04T07:08:12;101598.91;;;16.83;50.27
49377;BME280;35253;34.688;33.040;2023-01-04T07:10:38;101592.66;;;16.95;49.52
49377;BME280;35253;34.688;33.040;2023-01-04T07:13:04;101597.63;;;17.01;49.31
49377;BME280;35253;34.688;33.040;2023-01-04T07:15:29;101590.28;;;17.03;49.33
49377;BME280;35253;34.688;33.040;2023-01-04T07:17:55;101600.84;;;17.06;49.32
49377;BME280;35253;34.688;33.040;2023-01-04T07:20:20;101591.13;;;17.16;48.90
49377;BME280;35253;34.688;33.040;2023-01-04T07:22:45;101603.19;;;17.23;48.67
49377;BME280;35253;34.688;33.040;2023-01-04T07:25:11;101603.72;;;17.28;50.08
49377;BME280;35253;34.688;33.040;2023-01-04T07:27:36;101608.75;;;17.45;54.52
49377;BME280;35253;34.688;33.040;2023-01-04T07:30:02;101604.63;;;17.52;58.68
49377;BME280;35253;34.688;33.040;2023-01-04T07:32:28;101602.88;;;17.51;60.09
49377;BME280;35253;34.688;33.040;2023-01-04T07:34:53;101611.31;;;17.60;60.90
49377;BME280;35253;34.688;33.040;2023-01-04T07:37:19;101610.00;;;17.65;65.39
49377;BME280;35253;34.688;33.040;2023-01-04T07:39:44;101605.56;;;17.64;69.17
49377;BME280;35253;34.688;33.040;2023-01-04T07:42:10;101607.19;;;17.67;71.73
49377;BME280;35253;34.688;33.040;2023-01-04T07:44:36;101607.25;;;17.78;78.00
49377;BME280;35253;34.688;33.040;2023-01-04T07:47:01;101611.44;;;17.82;82.28
49377;BME280;35253;34.688;33.040;2023-01-04T07:49:27;101613.94;;;17.85;85.01
49377;BME280;35253;34.688;33.040;2023-01-04T07:51:52;101612.91;;;17.98;90.73
49377;BME280;35253;34.688;33.040;2023-01-04T07:54:18;101614.06;;;18.18;91.89
49377;BME280;35253;34.688;33.040;2023-01-04T07:56:46;101606.03;;;18.29;94.06
49377;BME280;35253;34.688;33.040;2023-01-04T07:59:12;101610.94;;;18.35;94.41
49377;BME280;35253;34.688;33.040;2023-01-04T08:01:37;101606.50;;;18.23;96.23
49377;BME280;35253;34.688;33.040;2023-01-04T08:04:07;101604.56;;;18.25;99.58
49377;BME280;35253;34.688;33.040;2023-01-04T08:06:34;101606.03;;;18.29;99.76
49377;BME280;35253;34.688;33.040;2023-01-04T08:09:00;101594.75;;;18.35;98.65
49377;BME280;35253;34.688;33.040;2023-01-04T08:11:26;101601.25;;;18.33;98.08
49377;BME280;35253;34.688;33.040;2023-01-04T08:13:52;101591.31;;;18.33;98.13
49377;BME280;35253;34.688;33.040;2023-01-04T08:16:25;101601.16;;;18.45;99.65
49377;BME280;35253;34.688;33.040;2023-01-04T08:18:56;101599.19;;;18.47;99.85
49377;BME280;35253;34.688;33.040;2023-01-04T08:21:23;101590.38;;;18.45;99.19
49377;BME280;35253;34.688;33.040;2023-01-04T08:23:48;101590.13;;;18.48;98.41
49377;BME280;35253;34.688;33.040;2023-01-04T08:26:14;101590.13;;;18.48;96.80
49377;BME280;35253;34.688;33.040;2023-01-04T08:28:40;101589.91;;;18.52;97.63
49377;BME280;35253;34.688;33.040;2023-01-04T08:31:17;101591.41;;;18.56;97.75
49377;BME280;35253;34.688;33.040;2023-01-04T08:33:42;101582.09;;;18.60;95.12
49377;BME280;35253;34.688;33.040;2023-01-04T08:36:29;101577.56;;;18.60;93.83
49377;BME280;35253;34.688;33.040;2023-01-04T08:38:54;101577.56;;;18.60;94.52
49377;BME280;35253;34.688;33.040;2023-01-04T08:41:20;101584.44;;;18.64;94.82
49377;BME280;35253;34.688;33.040;2023-01-04T08:43:46;101578.78;;;18.67;95.55
49377;BME280;35253;34.688;33.040;2023-01-04T08:46:11;101572.75;;;18.64;95.78
49377;BME280;35253;34.688;33.040;2023-01-04T08:48:37;101577.81;;;18.79;96.88
49377;BME280;35253;34.688;33.040;2023-01-04T08:51:04;101573.66;;;18.86;96.43
49377;BME280;35253;34.688;33.040;2023-01-04T08:53:30;101569.47;;;18.94;94.97
49377;BME280;35253;34.688;33.040;2023-01-04T08:55:55;101562.72;;;18.99;95.54
49377;BME280;35253;34.688;33.040;2023-01-04T08:58:22;101568.59;;;18.93;94.82
49377;BME280;35253;34.688;33.040;2023-01-04T09:00:48;101562.22;;;18.94;95.92
49377;BME280;35253;34.688;33.040;2023-01-04T09:03:13;101557.06;;;18.91;98.14
49377;BME280;35253;34.688;33.040;2023-01-04T09:05:39;101548.22;;;18.89;98.76
49377;BME280;35253;34.688;33.040;2023-01-04T09:08:04;101547.97;;;19.03;98.50
49377;BME280;35253;34.688;33.040;2023-01-04T09:10:30;101543.53;;;19.02;97.28
49377;BME280;35253;34.688;33.040;2023-01-04T09:12:55;101540.72;;;19.04;97.18
49377;BME280;35253;34.688;33.040;2023-01-04T09:15:21;101537.91;;;18.94;96.81
49377;BME280;35253;34.688;33.040;2023-01-04T09:17:47;101534.97;;;18.86;98.55
49377;BME280;35253;34.688;33.040;2023-01-04T09:20:13;101520.81;;;18.94;98.75
49377;BME280;35253;34.688;33.040;2023-01-04T09:22:39;101526.22;;;18.94;94.82
49377;BME280;35253;34.688;33.040;2023-01-04T09:25:04;101520.34;;;19.00;96.07
49377;BME280;35253;34.688;33.040;2023-01-04T09:27:30;101514.03;;;19.10;93.68
49377;BME280;35253;34.688;33.040;2023-01-04T09:29:56;101521.28;;;19.10;92.70
49377;BME280;35253;34.688;33.040;2023-01-04T09:32:21;101520.69;;;19.06;95.52
49377;BME280;35253;34.688;33.040;2023-01-04T09:34:47;101518.72;;;19.08;96.88
49377;BME280;35253;34.688;33.040;2023-01-04T09:37:12;101509.47;;;19.22;96.76
49377;BME280;35253;34.688;33.040;2023-01-04T09:39:38;101502.22;;;19.22;97.45
49377;BME280;35253;34.688;33.040;2023-01-04T09:42:04;101507.50;;;19.24;97.17
49377;BME280;35253;34.688;33.040;2023-01-04T09:44:43;101500.53;;;19.21;98.27
49377;BME280;35253;34.688;33.040;2023-01-04T09:47:11;101494.09;;;19.22;97.76
49377;BME280;35253;34.688;33.040;2023-01-04T09:52:12;101487.44;;;19.38;96.61
49377;BME280;35253;34.688;33.040;2023-01-04T09:54:48;101486.72;;;19.47;95.51
49377;BME280;35253;34.688;33.040;2023-01-04T09:57:24;101483.03;;;19.48;94.38
49377;BME280;35253;34.688;33.040;2023-01-04T09:59:55;101490.84;;;19.40;96.22
49377;BME280;35253;34.688;33.040;2023-01-04T10:02:23;101481.63;;;19.53;96.75
49377;BME280;35253;34.688;33.040;2023-01-04T10:04:53;101477.22;;;19.41;95.93
49377;BME280;35253;34.688;33.040;2023-01-04T10:07:29;101474.53;;;19.52;95.41
49377;BME280;35253;34.688;33.040;2023-01-04T10:09:55;101469.81;;;19.65;94.90
49377;BME280;35253;34.688;33.040;2023-01-04T10:15:09;101469.44;;;19.59;97.41
49377;BME280;35253;34.688;33.040;2023-01-04T10:22:47;101461.91;;;19.62;96.20
49377;BME280;35253;34.688;33.040;2023-01-04T10:33:18;101448.03;;;20.08;92.65
49377;BME280;35253;34.688;33.040;2023-01-04T10:35:45;101444.66;;;19.95;93.34
49377;BME280;35253;34.688;33.040;2023-01-04T10:38:17;101447.19;;;19.87;92.97
49377;BME280;35253;34.688;33.040;2023-01-04T10:40:46;101446.03;;;19.90;93.41
49377;BME280;35253;34.688;33.040;2023-01-04T10:50:45;101431.03;;;20.48;92.64
49377;BME280;35253;34.688;33.040;2023-01-04T10:56:03;101423.34;;;20.53;92.11
49377;BME280;35253;34.688;33.040;2023-01-04T10:58:38;101417.72;;;20.75;91.89
49377;BME280;35253;34.688;33.040;2023-01-04T11:01:07;101412.81;;;20.59;91.77
49377;BME280;35253;34.688;33.040;2023-01-04T11:03:37;101414.91;;;20.46;90.73
49377;BME280;35253;34.688;33.040;2023-01-04T11:08:35;101407.03;;;20.83;89.72
49377;BME280;35253;34.688;33.040;2023-01-04T11:11:08;101408.78;;;20.84;90.98
49377;BME280;35253;34.688;33.040;2023-01-04T11:13:35;101401.16;;;21.28;90.15
49377;BME280;35253;34.688;33.040;2023-01-04T11:16:03;101400.16;;;21.67;87.61
49377;BME280;35253;34.688;33.040;2023-01-04T11:18:29;101385.25;;;22.00;87.89
49377;BME280;35253;34.688;33.040;2023-01-04T11:20:56;101379.56;;;21.93;88.07
49377;BME280;35253;34.688;33.040;2023-01-04T11:23:21;101383.03;;;22.60;87.73
49377;BME280;35253;34.688;33.040;2023-01-04T11:25:49;101384.44;;;22.27;86.67
49377;BME280;35253;34.688;33.040;2023-01-04T11:28:20;101386.97;;;21.82;84.24
49377;BME280;35253;34.688;33.040;2023-01-04T11:30:50;101380.97;;;21.78;83.07
49377;BME280;35253;34.688;33.040;2023-01-04T11:33:18;101374.06;;;22.03;81.36
49377;BME280;35253;34.688;33.040;2023-01-04T11:35:49;101377.22;;;21.98;81.57
49377;BME280;35253;34.688;33.040;2023-01-04T11:40:41;101362.41;;;21.54;85.45
49377;BME280;35253;34.688;33.040;2023-01-04T11:43:19;101374.72;;;21.49;85.91
49377;BME280;35253;34.688;33.040;2023-01-04T11:45:52;101366.97;;;21.64;85.53
49377;BME280;35253;34.688;33.040;2023-01-04T11:48:18;101367.28;;;21.51;83.89
49377;BME280;35253;34.688;33.040;2023-01-04T11:50:47;101364.09;;;21.94;81.15
49377;BME280;35253;34.688;33.040;2023-01-04T11:53:22;101362.38;;;21.83;85.09
49377;BME280;35253;34.688;33.040;2023-01-04T11:55:48;101358.78;;;22.39;82.84
49377;BME280;35253;34.688;33.040;2023-01-04T11:58:15;101354.06;;;22.04;83.56
49377;BME280;35253;34.688;33.040;2023-01-04T12:00:51;101366.97;;;21.92;82.71
49377;BME280;35253;34.688;33.040;2023-01-04T12:03:24;101353.66;;;21.89;84.07
49377;BME280;35253;34.688;33.040;2023-01-04T12:05:50;101354.81;;;22.61;80.90
49377;BME280;35253;34.688;33.040;2023-01-04T12:08:29;101350.06;;;22.72;79.27
49377;BME280;35253;34.688;33.040;2023-01-04T12:10:56;101355.97;;;22.58;80.86
49377;BME280;35253;34.688;33.040;2023-01-04T12:13:23;101362.50;;;22.11;85.17
49377;BME280;35253;34.688;33.040;2023-01-04T12:18:21;101351.28;;;22.23;84.25
49377;BME280;35253;34.688;33.040;2023-01-04T12:20:50;101348.53;;;22.33;81.86
49377;BME280;35253;34.688;33.040;2023-01-04T12:23:16;101348.13;;;22.55;81.03
49377;BME280;35253;34.688;33.040;2023-01-04T12:25:45;101351.94;;;22.62;82.78
49377;BME280;35253;34.688;33.040;2023-01-04T12:30:52;101347.13;;;22.29;86.69
49377;BME280;35253;34.688;33.040;2023-01-04T12:41:11;101358.50;;;22.42;85.71
49377;BME280;35253;34.688;33.040;2023-01-04T12:43:36;101351.91;;;22.44;87.50
49377;BME280;35253;34.688;33.040;2023-01-04T13:02:21;101351.13;;;21.69;93.47
49377;BME280;35253;34.688;33.040;2023-01-04T13:04:47;101355.56;;;21.60;91.92
49377;BME280;35253;34.688;33.040;2023-01-04T13:07:17;101347.53;;;21.97;89.82
49377;BME280;35253;34.688;33.040;2023-01-04T13:09:50;101358.63;;;22.03;90.86
49377;BME280;35253;34.688;33.040;2023-01-04T13:14:52;101347.72;;;22.50;85.34
49377;BME280;35253;34.688;33.040;2023-01-04T13:17:22;101346.41;;;22.27;84.40
49377;BME280;35253;34.688;33.040;2023-01-04T13:19:49;101346.28;;;23.01;82.75
49377;BME280;35253;34.688;33.040;2023-01-04T13:22:19;101347.66;;;23.40;82.46
49377;BME280;35253;34.688;33.040;2023-01-04T13:24:45;101347.25;;;23.70;80.66
49377;BME280;35253;34.688;33.040;2023-01-04T13:27:16;101342.03;;;23.77;79.28
49377;BME280;35253;34.688;33.040;2023-01-04T13:29:42;101339.72;;;25.97;71.59
49377;BME280;35253;34.688;33.040;2023-01-04T13:34:37;101332.81;;;32.41;46.25
49377;BME280;35253;34.688;33.040;2023-01-04T13:37:25;101347.06;;;32.89;44.16
49377;BME280;35253;34.688;33.040;2023-01-04T13:39:50;101348.06;;;30.93;44.66
49377;BME280;35253;34.688;33.040;2023-01-04T13:45:00;101334.13;;;27.53;60.38
49377;BME280;35253;34.688;33.040;2023-01-04T13:47:32;101346.97;;;27.07;63.54
49377;BME280;35253;34.688;33.040;2023-01-04T13:49:59;101344.28;;;26.60;63.92
49377;BME280;35253;34.688;33.040;2023-01-04T13:52:26;101343.50;;;25.88;71.77
49377;BME280;35253;34.688;33.040;2023-01-04T13:55:08;101342.94;;;26.56;69.23
49377;BME280;35253;34.688;33.040;2023-01-04T13:57:34;101349.09;;;29.33;56.21
49377;BME280;35253;34.688;33.040;2023-01-04T13:59:59;101341.56;;;29.41;53.93
49377;BME280;35253;34.688;33.040;2023-01-04T14:02:27;101347.56;;;30.01;49.65
49377;BME280;35253;34.688;33.040;2023-01-04T14:04:53;101348.34;;;31.11;45.75
49377;BME280;35253;34.688;33.040;2023-01-04T14:07:22;101336.06;;;29.90;48.48
49377;BME280;35253;34.688;33.040;2023-01-04T14:09:52;101310.50;;;30.31;46.89
49377;BME280;35253;34.688;33.040;2023-01-04T14:12:21;101308.16;;;29.93;47.83
49377;BME280;35253;34.688;33.040;2023-01-04T14:17:28;101304.91;;;31.52;43.31
49377;BME280;35253;34.688;33.040;2023-01-04T14:19:59;101312.72;;;33.17;40.89
49377;BME280;35253;34.688;33.040;2023-01-04T14:24:52;101340.63;;;30.05;44.53
49377;BME280;35253;34.688;33.040;2023-01-04T14:27:34;101348.06;;;28.33;49.33
49377;BME280;35253;34.688;33.040;2023-01-04T14:30:46;101341.28;;;26.77;54.34
49377;BME280;35253;34.688;33.040;2023-01-04T14:32:56;101335.34;;;25.64;60.27
49377;BME280;35253;34.688;33.040;2023-01-04T14:35:23;101348.31;;;25.62;65.52
49377;BME280;35253;34.688;33.040;2023-01-04T14:37:48;101334.50;;;25.55;64.25